Anaktuvuk Pass, Alaska
Current Conditions -  °F | °C
As of 11:56 PM on Wednesday 22 Oct 2014 (Local Time) from PAKP Reporting Station
Overcast Overcast  
Wind Chill: 14°   Ceiling: 8000
Heat Index: 14°   Visibility: 10mi
Dew Point:   Wind: 3mph
Humidity: 73%   Direction: 10°N
Pressure: 29.71"   Gusts: NA
Location:  68.14°N, 151.74°W
Report Text: PAKP 230756Z AUTO 01003KT 10SM OVC080 M10/M14 A2971 RMK AO1
Loading
Personal Weather Stations






























Interactive Weather Map
Tropical Storm Tracking
New forecast layout! Learn more

10-Day Weather Forecast

Advertisements
Track Severe Weather on mobile